createdAt,value
2018-02-21T00:00:38.543Z,0
2018-02-21T00:03:08.568Z,0
2018-02-21T00:04:23.351Z,0
2018-02-21T00:05:37.598Z,0
2018-02-21T00:06:51.613Z,0
2018-02-21T00:08:05.861Z,0
2018-02-21T00:09:20.856Z,0
2018-02-21T00:10:35.109Z,0
2018-02-21T00:11:49.357Z,0
2018-02-21T00:13:03.831Z,0
2018-02-21T00:14:18.289Z,0
2018-02-21T00:15:32.855Z,0
2018-02-21T00:16:47.327Z,0
2018-02-21T00:18:01.810Z,0
2018-02-21T00:19:15.332Z,0
2018-02-21T00:20:29.616Z,0
2018-02-21T00:21:43.914Z,0
2018-02-21T00:22:58.436Z,0
2018-02-21T00:24:12.658Z,0
2018-02-21T00:25:26.664Z,0
2018-02-21T00:26:40.672Z,0
2018-02-21T00:27:55.204Z,0
2018-02-21T00:29:09.246Z,0
2018-02-21T00:30:23.547Z,0
2018-02-21T00:31:37.777Z,0
2018-02-21T00:33:06.651Z,0
2018-02-21T00:34:21.786Z,0
2018-02-21T00:35:35.785Z,0
2018-02-21T00:36:50.041Z,0
2018-02-21T00:38:04.537Z,0
2018-02-21T00:39:19.146Z,0
2018-02-21T00:40:33.610Z,0
2018-02-21T00:41:48.318Z,0
2018-02-21T00:43:02.820Z,0
2018-02-21T00:44:17.314Z,0
2018-02-21T00:45:31.570Z,0
2018-02-21T00:46:45.871Z,0
2018-02-21T00:48:00.096Z,0
2018-02-21T00:49:14.085Z,0
2018-02-21T00:50:28.303Z,0
2018-02-21T00:51:42.500Z,0
2018-02-21T00:52:56.532Z,0
2018-02-21T00:54:10.526Z,0
2018-02-21T00:55:24.508Z,0
2018-02-21T00:56:38.977Z,0
2018-02-21T00:57:53.421Z,0
2018-02-21T00:59:07.951Z,0
2018-02-21T01:00:37.117Z,0
2018-02-21T01:01:51.596Z,0
2018-02-21T01:03:06.079Z,0
2018-02-21T01:04:20.590Z,0
2018-02-21T01:05:35.068Z,0
2018-02-21T01:06:49.142Z,0
2018-02-21T01:08:03.371Z,0
2018-02-21T01:09:17.351Z,0
2018-02-21T01:10:31.866Z,0
2018-02-21T01:11:45.832Z,0
2018-02-21T01:13:00.277Z,0
2018-02-21T01:14:14.497Z,0
2018-02-21T01:15:28.494Z,0
2018-02-21T01:16:42.504Z,0
2018-02-21T01:17:56.718Z,0
2018-02-21T01:19:10.969Z,0
2018-02-21T01:20:24.946Z,0
2018-02-21T01:21:38.932Z,0
2018-02-21T01:22:52.976Z,0
2018-02-21T01:24:07.446Z,0
2018-02-21T01:25:21.954Z,0
2018-02-21T01:26:36.450Z,0
2018-02-21T01:27:50.438Z,0
2018-02-21T01:29:04.475Z,0
2018-02-21T01:30:18.462Z,0
2018-02-21T01:31:32.728Z,0
2018-02-21T01:32:46.734Z,0
2018-02-21T01:34:00.746Z,0
2018-02-21T01:35:14.795Z,0
2018-02-21T01:36:28.799Z,0
2018-02-21T01:37:43.018Z,0
2018-02-21T01:38:57.255Z,0
2018-02-21T01:40:11.844Z,0
2018-02-21T01:41:26.119Z,0
2018-02-21T01:42:40.093Z,0
2018-02-21T01:44:09.220Z,0
2018-02-21T01:45:23.702Z,0
2018-02-21T01:46:37.740Z,0
2018-02-21T01:47:52.009Z,0
2018-02-21T01:49:06.528Z,0
2018-02-21T01:50:21.002Z,0
2018-02-21T01:51:35.015Z,0
2018-02-21T01:52:49.037Z,0
2018-02-21T01:54:02.795Z,0
2018-02-21T01:55:16.799Z,0
2018-02-21T01:56:30.551Z,0
2018-02-21T01:57:44.053Z,0
2018-02-21T01:58:58.271Z,0
2018-02-21T02:00:12.269Z,0
2018-02-21T02:01:26.806Z,0
2018-02-21T02:02:40.543Z,0
2018-02-21T02:03:54.777Z,0
2018-02-21T02:05:09.520Z,0
2018-02-21T02:06:23.752Z,0
2018-02-21T02:07:38.007Z,0
2018-02-21T02:08:51.752Z,0
2018-02-21T02:10:06.229Z,0
2018-02-21T02:11:20.560Z,0
2018-02-21T02:12:34.438Z,0
2018-02-21T02:13:48.439Z,0
2018-02-21T02:15:01.737Z,0
2018-02-21T02:16:16.219Z,0
2018-02-21T02:17:30.526Z,0
2018-02-21T02:18:44.993Z,0
2018-02-21T02:19:58.991Z,0
2018-02-21T02:21:13.264Z,0
2018-02-21T02:22:27.732Z,0
2018-02-21T02:23:42.265Z,0
2018-02-21T02:24:56.011Z,0
2018-02-21T02:26:10.016Z,0
2018-02-21T02:27:24.262Z,0
2018-02-21T02:28:38.513Z,0
2018-02-21T02:29:53.042Z,0
2018-02-21T02:31:07.128Z,0
2018-02-21T02:32:21.839Z,0
2018-02-21T02:33:35.099Z,0
2018-02-21T02:34:49.341Z,0
2018-02-21T02:36:03.620Z,0
2018-02-21T02:37:17.859Z,0
2018-02-21T02:38:32.092Z,0
2018-02-21T02:39:46.054Z,0
2018-02-21T02:41:00.278Z,0
2018-02-21T02:42:14.532Z,0
2018-02-21T02:43:28.770Z,0
2018-02-21T02:44:43.232Z,0
2018-02-21T02:45:57.854Z,0
2018-02-21T02:47:27.279Z,0
2018-02-21T02:48:41.908Z,0
2018-02-21T02:49:56.445Z,0
2018-02-21T02:51:10.703Z,0
2018-02-21T02:52:24.943Z,0
2018-02-21T02:53:38.981Z,0
2018-02-21T02:54:53.492Z,0
2018-02-21T02:56:07.723Z,0
2018-02-21T02:57:21.973Z,0
2018-02-21T02:58:35.953Z,0
2018-02-21T02:59:50.302Z,0
2018-02-21T03:01:04.277Z,0
2018-02-21T03:02:18.758Z,0
2018-02-21T03:03:33.222Z,0
2018-02-21T03:04:46.986Z,0
2018-02-21T03:06:01.319Z,0
2018-02-21T03:07:15.298Z,0
2018-02-21T03:08:29.299Z,0
2018-02-21T03:09:43.500Z,0
2018-02-21T03:10:57.987Z,0
2018-02-21T03:12:12.990Z,0
2018-02-21T03:13:27.215Z,0
2018-02-21T03:14:41.694Z,0
2018-02-21T03:15:55.901Z,0
2018-02-21T03:17:09.461Z,0
2018-02-21T03:18:23.674Z,0
2018-02-21T03:19:37.172Z,0
2018-02-21T03:20:51.593Z,0
2018-02-21T03:22:05.812Z,0
2018-02-21T03:23:20.057Z,0
2018-02-21T03:24:34.590Z,0
2018-02-21T03:25:48.366Z,0
2018-02-21T03:27:02.601Z,0
2018-02-21T03:28:16.586Z,0
2018-02-21T03:29:31.089Z,0
2018-02-21T03:30:45.384Z,0
2018-02-21T03:31:59.622Z,0
2018-02-21T03:33:13.628Z,0
2018-02-21T03:34:28.089Z,0
2018-02-21T03:35:42.324Z,0
2018-02-21T03:36:56.842Z,0
2018-02-21T03:38:10.850Z,0
2018-02-21T03:39:25.084Z,0
2018-02-21T03:40:39.085Z,0
2018-02-21T03:41:53.810Z,0
2018-02-21T03:43:07.607Z,0
2018-02-21T03:44:21.360Z,0
2018-02-21T03:45:35.370Z,0
2018-02-21T03:46:49.856Z,0
2018-02-21T03:48:03.575Z,0
2018-02-21T03:49:17.847Z,0
2018-02-21T03:50:32.104Z,0
2018-02-21T03:51:45.976Z,0
2018-02-21T03:52:59.483Z,0
2018-02-21T03:54:13.690Z,0
2018-02-21T03:55:28.212Z,0
2018-02-21T03:56:41.709Z,0
2018-02-21T03:57:55.925Z,0
2018-02-21T03:59:09.717Z,0
2018-02-21T04:00:38.344Z,0
2018-02-21T04:01:52.147Z,0
2018-02-21T04:03:05.746Z,0
2018-02-21T04:04:20.034Z,0
2018-02-21T04:05:34.002Z,0
2018-02-21T04:06:48.194Z,0
2018-02-21T04:08:01.739Z,0
2018-02-21T04:09:16.227Z,0
2018-02-21T04:10:30.187Z,0
2018-02-21T04:11:44.637Z,0
2018-02-21T04:12:59.126Z,0
2018-02-21T04:14:13.402Z,0
2018-02-21T04:15:27.388Z,0
2018-02-21T04:16:41.394Z,0
2018-02-21T04:17:55.154Z,0
2018-02-21T04:19:09.388Z,0
2018-02-21T04:20:23.743Z,0
2018-02-21T04:21:37.521Z,0
2018-02-21T04:22:51.784Z,0
2018-02-21T04:24:06.646Z,0
2018-02-21T04:25:21.169Z,0
2018-02-21T04:26:35.722Z,0
2018-02-21T04:27:50.230Z,0
2018-02-21T04:29:04.254Z,0
2018-02-21T04:30:18.479Z,0
2018-02-21T04:31:32.717Z,0
2018-02-21T04:32:47.149Z,0
2018-02-21T04:34:01.249Z,0
2018-02-21T04:35:15.543Z,0
2018-02-21T04:36:30.295Z,0
2018-02-21T04:37:44.829Z,0
2018-02-21T04:38:58.716Z,0
2018-02-21T04:40:12.971Z,0
2018-02-21T04:41:26.737Z,0
2018-02-21T04:42:40.474Z,0
2018-02-21T04:43:54.486Z,0
2018-02-21T04:45:09.299Z,0
2018-02-21T04:46:23.314Z,0
2018-02-21T04:47:37.840Z,0
2018-02-21T04:48:51.604Z,0
2018-02-21T04:50:05.353Z,0
2018-02-21T04:51:19.932Z,0
2018-02-21T04:52:34.391Z,0
2018-02-21T04:53:48.894Z,0
2018-02-21T04:55:03.630Z,0
2018-02-21T04:56:18.157Z,0
2018-02-21T04:57:32.349Z,0
2018-02-21T04:58:46.135Z,0
2018-02-21T05:00:00.607Z,0
2018-02-21T05:01:14.614Z,0
2018-02-21T05:02:28.588Z,0
2018-02-21T05:03:42.677Z,0
2018-02-21T05:04:57.198Z,0
2018-02-21T05:06:11.215Z,0
2018-02-21T05:07:25.676Z,0
2018-02-21T05:08:40.195Z,0
2018-02-21T05:09:54.495Z,0
2018-02-21T05:11:08.488Z,0
2018-02-21T05:12:22.444Z,0
2018-02-21T05:13:36.979Z,0
2018-02-21T05:14:51.090Z,0
2018-02-21T05:16:05.441Z,0
2018-02-21T05:17:19.967Z,0
2018-02-21T05:18:34.447Z,0
2018-02-21T05:19:48.720Z,0
2018-02-21T05:21:03.230Z,0
2018-02-21T05:22:18.016Z,0
2018-02-21T05:23:32.494Z,0
2018-02-21T05:24:46.263Z,0
2018-02-21T05:25:59.772Z,0
2018-02-21T05:27:13.286Z,0
2018-02-21T05:28:27.806Z,0
2018-02-21T05:29:42.064Z,0
2018-02-21T05:30:56.385Z,0
2018-02-21T05:32:10.364Z,0
2018-02-21T05:33:24.127Z,0
2018-02-21T05:34:38.163Z,0
2018-02-21T05:35:52.390Z,0
2018-02-21T05:37:06.414Z,0
2018-02-21T05:38:20.428Z,0
2018-02-21T05:39:34.212Z,0
2018-02-21T05:40:48.284Z,0
2018-02-21T05:42:02.295Z,0
2018-02-21T05:43:16.272Z,0
2018-02-21T05:44:30.298Z,0
2018-02-21T05:45:44.585Z,0
2018-02-21T05:46:58.881Z,0
2018-02-21T05:48:13.164Z,0
2018-02-21T05:49:27.625Z,0
2018-02-21T05:50:41.359Z,0
2018-02-21T05:51:55.837Z,0
2018-02-21T05:53:10.474Z,0
2018-02-21T05:54:24.480Z,0
2018-02-21T05:55:38.697Z,0
2018-02-21T05:56:52.930Z,4
2018-02-21T05:58:07.416Z,0
2018-02-21T05:59:21.981Z,4
2018-02-21T06:00:35.998Z,4
2018-02-21T06:03:18.062Z,4
2018-02-21T06:04:32.144Z,4
2018-02-21T06:05:45.640Z,8
2018-02-21T06:06:59.865Z,12
2018-02-21T06:08:14.118Z,12
2018-02-21T06:09:28.119Z,16
2018-02-21T06:10:42.671Z,20
2018-02-21T06:11:56.931Z,24
2018-02-21T06:13:11.203Z,24
2018-02-21T06:14:24.953Z,28
2018-02-21T06:15:38.706Z,36
2018-02-21T06:17:07.598Z,44
2018-02-21T06:18:22.175Z,48
2018-02-21T06:19:36.740Z,60
2018-02-21T06:20:50.988Z,68
2018-02-21T06:22:05.265Z,80
2018-02-21T06:23:19.567Z,88
2018-02-21T06:24:33.136Z,100
2018-02-21T06:25:47.705Z,108
2018-02-21T06:27:02.027Z,124
2018-02-21T06:28:16.314Z,136
2018-02-21T06:29:30.643Z,148
2018-02-21T06:30:44.434Z,168
2018-02-21T06:31:58.455Z,184
2018-02-21T06:33:12.956Z,200
2018-02-21T06:34:27.179Z,216
2018-02-21T06:35:41.801Z,240
2018-02-21T06:36:56.272Z,260
2018-02-21T06:38:10.290Z,280
2018-02-21T06:39:24.042Z,300
2018-02-21T06:40:38.278Z,328
2018-02-21T06:41:52.347Z,352
2018-02-21T06:43:06.418Z,376
2018-02-21T06:44:20.708Z,400
2018-02-21T06:45:34.482Z,432
2018-02-21T06:46:48.956Z,456
2018-02-21T06:48:02.716Z,484
2018-02-21T06:49:17.254Z,504
2018-02-21T06:50:31.501Z,528
2018-02-21T06:51:45.745Z,548
2018-02-21T06:52:59.553Z,576
2018-02-21T06:54:13.584Z,600
2018-02-21T06:55:27.585Z,616
2018-02-21T06:56:41.406Z,644
2018-02-21T06:57:55.692Z,668
2018-02-21T06:59:09.698Z,688
2018-02-21T07:00:23.722Z,708
2018-02-21T07:01:37.954Z,736
2018-02-21T07:02:51.950Z,760
2018-02-21T07:04:06.467Z,788
2018-02-21T07:05:21.229Z,808
2018-02-21T07:06:35.222Z,836
2018-02-21T07:07:49.252Z,852
2018-02-21T07:09:03.829Z,876
2018-02-21T07:10:18.134Z,900
2018-02-21T07:11:32.863Z,924
2018-02-21T07:12:46.620Z,956
2018-02-21T07:14:00.867Z,1000
2018-02-21T07:15:14.440Z,1044
2018-02-21T07:16:28.467Z,1084
2018-02-21T07:17:42.042Z,1108
2018-02-21T07:18:55.810Z,1132
2018-02-21T07:20:09.582Z,1148
2018-02-21T07:21:23.344Z,1160
2018-02-21T07:22:36.844Z,1180
2018-02-21T07:23:50.616Z,1192
2018-02-21T07:25:05.114Z,1216
2018-02-21T07:26:18.598Z,1236
2018-02-21T07:27:32.852Z,1268
2018-02-21T07:28:46.902Z,1292
2018-02-21T07:30:00.988Z,1316
2018-02-21T07:31:15.232Z,1328
2018-02-21T07:32:29.721Z,1348
2018-02-21T07:33:44.253Z,1368
2018-02-21T07:34:58.040Z,1368
2018-02-21T07:36:12.063Z,1388
2018-02-21T07:37:26.071Z,1400
2018-02-21T07:38:40.065Z,1424
2018-02-21T07:39:54.554Z,1448
2018-02-21T07:41:23.732Z,1472
2018-02-21T07:42:38.121Z,1492
2018-02-21T07:43:51.873Z,1512
2018-02-21T07:45:05.895Z,1532
2018-02-21T07:46:20.482Z,1540
2018-02-21T07:47:35.015Z,1560
2018-02-21T07:48:49.027Z,1568
2018-02-21T07:50:03.286Z,1596
2018-02-21T07:51:17.434Z,1608
2018-02-21T07:52:31.832Z,1620
2018-02-21T07:53:46.322Z,1620
2018-02-21T07:55:00.839Z,1644
2018-02-21T07:56:14.370Z,1644
2018-02-21T07:57:28.704Z,1648
2018-02-21T07:58:58.064Z,1668
2018-02-21T08:00:11.830Z,1660
2018-02-21T08:01:25.742Z,1672
2018-02-21T08:02:39.812Z,1692
2018-02-21T08:03:54.348Z,1728
2018-02-21T08:05:08.753Z,1760
2018-02-21T08:06:23.062Z,1768
2018-02-21T08:07:36.861Z,1784
2018-02-21T08:08:50.654Z,1792
2018-02-21T08:10:05.443Z,1788
2018-02-21T08:11:19.470Z,1800
2018-02-21T08:12:33.980Z,1792
2018-02-21T08:13:48.232Z,1804
2018-02-21T08:15:02.618Z,1844
2018-02-21T08:16:16.128Z,1864
2018-02-21T08:17:30.638Z,1880
2018-02-21T08:18:44.430Z,1892
2018-02-21T08:19:58.923Z,1904
2018-02-21T08:21:12.462Z,1924
2018-02-21T08:22:26.479Z,1932
2018-02-21T08:23:40.989Z,1920
2018-02-21T08:24:55.037Z,1928
2018-02-21T08:26:09.521Z,1924
2018-02-21T08:27:23.798Z,1916
2018-02-21T08:28:37.556Z,1924
2018-02-21T08:29:51.588Z,1928
2018-02-21T08:31:05.625Z,1944
2018-02-21T08:32:19.657Z,1932
2018-02-21T08:33:33.397Z,1964
2018-02-21T08:34:47.991Z,1976
2018-02-21T08:36:02.033Z,1980
2018-02-21T08:37:16.737Z,1972
2018-02-21T08:38:30.988Z,1960
2018-02-21T08:39:44.768Z,1968
2018-02-21T08:40:59.236Z,2000
2018-02-21T08:42:12.772Z,2036
2018-02-21T08:43:27.064Z,2036
2018-02-21T08:44:41.316Z,2056
2018-02-21T08:45:55.814Z,2076
2018-02-21T08:47:09.813Z,2068
2018-02-21T08:48:23.900Z,2084
2018-02-21T08:49:38.412Z,2088
2018-02-21T08:50:53.200Z,2084
2018-02-21T08:52:07.297Z,2080
2018-02-21T08:53:21.494Z,2068
2018-02-21T08:54:35.732Z,2092
2018-02-21T08:55:49.744Z,2084
2018-02-21T08:57:03.757Z,2084
2018-02-21T08:58:18.206Z,2108
2018-02-21T08:59:31.953Z,2132
2018-02-21T09:00:45.951Z,2184
2018-02-21T09:01:59.971Z,2220
2018-02-21T09:03:14.488Z,2224
2018-02-21T09:04:28.482Z,2208
2018-02-21T09:05:42.952Z,2224
2018-02-21T09:06:56.717Z,2208
2018-02-21T09:08:10.689Z,2228
2018-02-21T09:09:24.920Z,2240
2018-02-21T09:10:38.920Z,2244
2018-02-21T09:11:53.403Z,2224
2018-02-21T09:13:07.919Z,2208
2018-02-21T09:14:22.455Z,2212
2018-02-21T09:15:36.709Z,2208
2018-02-21T09:16:51.023Z,2248
2018-02-21T09:18:04.775Z,2224
2018-02-21T09:19:18.285Z,2212
2018-02-21T09:20:32.793Z,2192
2018-02-21T09:21:47.313Z,2208
2018-02-21T09:23:01.307Z,2184
2018-02-21T09:24:15.311Z,2180
2018-02-21T09:25:29.351Z,2204
2018-02-21T09:26:43.394Z,2216
2018-02-21T09:27:58.180Z,2228
2018-02-21T09:29:12.358Z,2236
2018-02-21T09:30:27.300Z,2232
2018-02-21T09:31:41.300Z,2272
2018-02-21T09:32:55.344Z,2284
2018-02-21T09:34:09.592Z,2312
2018-02-21T09:35:23.925Z,2356
2018-02-21T09:36:38.657Z,2400
2018-02-21T09:37:53.152Z,2428
2018-02-21T09:39:07.173Z,2464
2018-02-21T09:40:20.934Z,2524
2018-02-21T09:41:34.674Z,2536
2018-02-21T09:42:48.943Z,2536
2018-02-21T09:44:03.206Z,2612
2018-02-21T09:45:16.736Z,2668
2018-02-21T09:46:31.451Z,2696
2018-02-21T09:47:45.946Z,2708
2018-02-21T09:48:59.963Z,2736
2018-02-21T09:50:13.737Z,2720
2018-02-21T09:51:28.003Z,2704
2018-02-21T09:52:42.486Z,2696
2018-02-21T09:53:56.994Z,2688
2018-02-21T09:55:11.353Z,2676
2018-02-21T09:56:25.840Z,2648
2018-02-21T09:57:40.100Z,2620
2018-02-21T09:58:54.363Z,2600
2018-02-21T10:00:08.352Z,2564
2018-02-21T10:01:23.119Z,2528
2018-02-21T10:02:37.425Z,2492
2018-02-21T10:03:51.678Z,2400
2018-02-21T10:05:05.933Z,2348
2018-02-21T10:06:20.195Z,2316
2018-02-21T10:07:34.215Z,2264
2018-02-21T10:08:48.245Z,2180
2018-02-21T10:10:02.237Z,2040
2018-02-21T10:11:16.993Z,2012
2018-02-21T10:12:31.733Z,2040
2018-02-21T10:13:46.247Z,2072
2018-02-21T10:15:00.236Z,2112
2018-02-21T10:16:14.223Z,2100
2018-02-21T10:17:28.443Z,2092
2018-02-21T10:18:42.690Z,2164
2018-02-21T10:19:56.454Z,2156
2018-02-21T10:21:10.236Z,2172
2018-02-21T10:22:24.452Z,2180
2018-02-21T10:23:38.457Z,2152
2018-02-21T10:24:52.727Z,2140
2018-02-21T10:26:07.246Z,2132
2018-02-21T10:27:21.491Z,2100
2018-02-21T10:28:35.624Z,2084
2018-02-21T10:29:49.436Z,2132
2018-02-21T10:31:03.915Z,2168
2018-02-21T10:32:18.424Z,2188
2018-02-21T10:33:32.152Z,2184
2018-02-21T10:34:46.871Z,2168
2018-02-21T10:36:01.149Z,2192
2018-02-21T10:37:14.183Z,2224
2018-02-21T10:38:27.942Z,2228
2018-02-21T10:39:42.234Z,2220
2018-02-21T10:40:56.248Z,2224
2018-02-21T10:42:11.000Z,2236
2018-02-21T10:43:25.063Z,2244
2018-02-21T10:44:38.830Z,2252
2018-02-21T10:45:52.575Z,2256
2018-02-21T10:47:06.617Z,2272
2018-02-21T10:48:20.400Z,2280
2018-02-21T10:49:34.451Z,2288
2018-02-21T10:50:48.979Z,2280
2018-02-21T10:52:03.275Z,2280
2018-02-21T10:53:16.792Z,2292
2018-02-21T10:54:31.291Z,2284
2018-02-21T10:55:44.845Z,2268
2018-02-21T10:56:58.370Z,2260
2018-02-21T10:58:12.850Z,2252
2018-02-21T10:59:27.624Z,2228
2018-02-21T11:00:41.685Z,2164
2018-02-21T11:01:55.813Z,2028
2018-02-21T11:03:09.599Z,1988
2018-02-21T11:04:23.391Z,2000
2018-02-21T11:05:37.380Z,2200
2018-02-21T11:06:51.908Z,2168
2018-02-21T11:08:05.935Z,2140
2018-02-21T11:09:20.660Z,2116
2018-02-21T11:10:34.456Z,2076
2018-02-21T11:11:48.969Z,2060
2018-02-21T11:13:02.492Z,1996
2018-02-21T11:14:16.524Z,1976
2018-02-21T11:15:30.823Z,1988
2018-02-21T11:16:44.613Z,2032
2018-02-21T11:17:58.919Z,2040
2018-02-21T11:19:13.152Z,2056
2018-02-21T11:20:27.439Z,2068
2018-02-21T11:21:41.431Z,2092
2018-02-21T11:22:55.911Z,2084
2018-02-21T11:24:09.703Z,2048
2018-02-21T11:25:24.216Z,1984
2018-02-21T11:26:37.971Z,1952
2018-02-21T11:27:52.210Z,1940
2018-02-21T11:29:06.209Z,1928
2018-02-21T11:30:20.769Z,1924
2018-02-21T11:31:35.044Z,1960
2018-02-21T11:32:49.106Z,1912
2018-02-21T11:34:03.854Z,1876
2018-02-21T11:35:18.209Z,1824
2018-02-21T11:36:32.444Z,1824
2018-02-21T11:37:46.182Z,1788
2018-02-21T11:39:00.681Z,1768
2018-02-21T11:40:14.973Z,1724
2018-02-21T11:41:28.720Z,1672
2018-02-21T11:42:43.201Z,1656
2018-02-21T11:43:57.237Z,1680
2018-02-21T11:45:10.571Z,1720
2018-02-21T11:46:24.098Z,1748
2018-02-21T11:47:37.623Z,1744
2018-02-21T11:48:52.128Z,1732
2018-02-21T11:50:06.388Z,1728
2018-02-21T11:51:20.923Z,1716
2018-02-21T11:52:34.468Z,1704
2018-02-21T11:53:48.724Z,1688
2018-02-21T11:55:02.993Z,1708
2018-02-21T11:56:17.019Z,1724
2018-02-21T11:57:31.280Z,1724
2018-02-21T11:58:44.831Z,1732
2018-02-21T11:59:59.109Z,1732
2018-02-21T12:01:12.882Z,1720
2018-02-21T12:02:26.458Z,1700
2018-02-21T12:03:40.715Z,1696
2018-02-21T12:04:55.667Z,1692
2018-02-21T12:06:09.911Z,1700
2018-02-21T12:07:24.192Z,1708
2018-02-21T12:08:38.572Z,1724
2018-02-21T12:09:52.859Z,1736
2018-02-21T12:11:07.132Z,1748
2018-02-21T12:12:21.671Z,1744
2018-02-21T12:13:35.709Z,1744
2018-02-21T12:14:50.448Z,1740
2018-02-21T12:16:04.019Z,1740
2018-02-21T12:17:18.106Z,1740
2018-02-21T12:18:32.122Z,1740
2018-02-21T12:19:45.685Z,1740
2018-02-21T12:20:59.671Z,1744
2018-02-21T12:22:13.720Z,1736
2018-02-21T12:23:27.981Z,1744
2018-02-21T12:24:42.250Z,1740
2018-02-21T12:25:56.046Z,1736
2018-02-21T12:27:09.820Z,1736
2018-02-21T12:28:23.595Z,1732
2018-02-21T12:29:37.464Z,1740
2018-02-21T12:30:51.981Z,1752
2018-02-21T12:32:05.756Z,1756
2018-02-21T12:33:19.772Z,1768
2018-02-21T12:34:34.047Z,1764
2018-02-21T12:35:48.076Z,1764
2018-02-21T12:37:01.652Z,1756
2018-02-21T12:38:16.164Z,1764
2018-02-21T12:39:30.213Z,1756
2018-02-21T12:40:44.853Z,1764
2018-02-21T12:41:59.233Z,1764
2018-02-21T12:43:13.787Z,1768
2018-02-21T12:44:28.277Z,1764
2018-02-21T12:45:42.101Z,1756
2018-02-21T12:46:56.433Z,1744
2018-02-21T12:48:10.700Z,1736
2018-02-21T12:49:24.969Z,1732
2018-02-21T12:50:39.503Z,1728
2018-02-21T12:51:53.999Z,1736
2018-02-21T12:53:08.311Z,1744
2018-02-21T12:54:22.867Z,1752
2018-02-21T12:55:37.085Z,1760
2018-02-21T12:56:51.582Z,1764
2018-02-21T12:58:05.337Z,1760
2018-02-21T12:59:19.939Z,1756
2018-02-21T13:00:33.975Z,1760
2018-02-21T13:01:48.480Z,1760
2018-02-21T13:03:03.247Z,1756
2018-02-21T13:04:17.314Z,1764
2018-02-21T13:05:31.145Z,1764
2018-02-21T13:06:45.401Z,1752
2018-02-21T13:07:59.450Z,1752
2018-02-21T13:09:13.978Z,1740
2018-02-21T13:10:27.516Z,1744
2018-02-21T13:11:41.760Z,1736
2018-02-21T13:12:55.809Z,1736
2018-02-21T13:14:09.708Z,1728
2018-02-21T13:15:23.850Z,1724
2018-02-21T13:16:38.191Z,1716
2018-02-21T13:17:51.968Z,1716
2018-02-21T13:19:06.499Z,1728
2018-02-21T13:20:20.535Z,1736
2018-02-21T13:21:35.270Z,1736
2018-02-21T13:22:49.071Z,1740
2018-02-21T13:24:03.346Z,1744
2018-02-21T13:25:17.406Z,1740
2018-02-21T13:26:31.954Z,1744
2018-02-21T13:27:45.962Z,1744
2018-02-21T13:29:00.712Z,1744
2018-02-21T13:30:14.766Z,1748
2018-02-21T13:31:28.983Z,1740
2018-02-21T13:32:43.517Z,1740
2018-02-21T13:33:57.328Z,1740
2018-02-21T13:35:11.581Z,1744
2018-02-21T13:36:26.077Z,1740
2018-02-21T13:37:40.127Z,1736
2018-02-21T13:38:54.491Z,1724
2018-02-21T13:40:08.545Z,1720
2018-02-21T13:41:23.064Z,1720
2018-02-21T13:42:37.345Z,1720
2018-02-21T13:43:51.615Z,1712
2018-02-21T13:45:05.637Z,1712
2018-02-21T13:46:19.669Z,1708
2018-02-21T13:47:33.717Z,1708
2018-02-21T13:48:47.863Z,1700
2018-02-21T13:50:02.133Z,1692
2018-02-21T13:51:16.404Z,1684
2018-02-21T13:52:31.209Z,1684
2018-02-21T13:53:45.748Z,1688
2018-02-21T13:54:59.735Z,1692
2018-02-21T13:56:14.254Z,1688
2018-02-21T13:57:28.508Z,1684
2018-02-21T13:58:42.586Z,1684
2018-02-21T13:59:55.855Z,1672
2018-02-21T14:01:09.863Z,1676
2018-02-21T14:02:24.120Z,1672
2018-02-21T14:03:38.605Z,1664
2018-02-21T14:04:52.640Z,1664
2018-02-21T14:06:06.892Z,1660
2018-02-21T14:07:20.936Z,1660
2018-02-21T14:08:35.190Z,1660
2018-02-21T14:09:49.198Z,1656
2018-02-21T14:11:03.667Z,1648
2018-02-21T14:12:17.446Z,1648
2018-02-21T14:13:31.439Z,1644
2018-02-21T14:14:45.708Z,1644
2018-02-21T14:15:59.252Z,1652
2018-02-21T14:17:13.766Z,1636
2018-02-21T14:18:28.322Z,1624
2018-02-21T14:19:42.370Z,1640
2018-02-21T14:20:56.137Z,1644
2018-02-21T14:22:10.989Z,1640
2018-02-21T14:23:39.915Z,1640
2018-02-21T14:24:54.161Z,1640
2018-02-21T14:26:08.936Z,1632
2018-02-21T14:27:23.069Z,1628
2018-02-21T14:28:37.381Z,1616
2018-02-21T14:29:51.381Z,1608
2018-02-21T14:31:05.916Z,1604
2018-02-21T14:32:20.166Z,1596
2018-02-21T14:33:34.673Z,1596
2018-02-21T14:34:49.009Z,1592
2018-02-21T14:36:03.523Z,1592
2018-02-21T14:37:17.099Z,1588
2018-02-21T14:38:31.356Z,1584
2018-02-21T14:39:45.382Z,1580
2018-02-21T14:41:14.755Z,1576
2018-02-21T14:42:29.356Z,1572
2018-02-21T14:43:43.620Z,1564
2018-02-21T14:44:57.868Z,1560
2018-02-21T14:46:12.133Z,1552
2018-02-21T14:47:26.131Z,1544
2018-02-21T14:48:39.663Z,1544
2018-02-21T14:49:53.692Z,1536
2018-02-21T14:51:07.731Z,1528
2018-02-21T14:52:21.984Z,1524
2018-02-21T14:53:36.235Z,1516
2018-02-21T14:54:50.629Z,1468
2018-02-21T14:56:04.914Z,1404
2018-02-21T14:57:19.674Z,1356
2018-02-21T14:58:33.961Z,1340
2018-02-21T14:59:48.243Z,1340
2018-02-21T15:01:02.529Z,1352
2018-02-21T15:02:16.057Z,1320
2018-02-21T15:03:30.082Z,1292
2018-02-21T15:04:43.908Z,1256
2018-02-21T15:05:57.898Z,1252
2018-02-21T15:07:12.402Z,1284
2018-02-21T15:08:26.472Z,1328
2018-02-21T15:09:40.022Z,1356
2018-02-21T15:10:54.259Z,1332
2018-02-21T15:12:08.522Z,1324
2018-02-21T15:13:22.771Z,1288
2018-02-21T15:14:36.814Z,1264
2018-02-21T15:15:51.309Z,1268
2018-02-21T15:17:05.146Z,1268
2018-02-21T15:18:19.408Z,1296
2018-02-21T15:19:33.687Z,1320
2018-02-21T15:20:48.250Z,1332
2018-02-21T15:22:02.504Z,1352
2018-02-21T15:23:16.109Z,1340
2018-02-21T15:24:30.160Z,1328
2018-02-21T15:25:44.229Z,1320
2018-02-21T15:26:58.792Z,1308
2018-02-21T15:28:12.954Z,1300
2018-02-21T15:29:27.241Z,1308
2018-02-21T15:30:41.538Z,1304
2018-02-21T15:31:56.118Z,1292
2018-02-21T15:33:10.698Z,1284
2018-02-21T15:34:25.196Z,1268
2018-02-21T15:35:39.482Z,1252
2018-02-21T15:36:53.774Z,1212
2018-02-21T15:38:08.272Z,1164
2018-02-21T15:39:22.306Z,1148
2018-02-21T15:40:36.093Z,1144
2018-02-21T15:41:50.568Z,1160
2018-02-21T15:43:04.568Z,1172
2018-02-21T15:44:18.832Z,1160
2018-02-21T15:45:33.338Z,1136
2018-02-21T15:46:47.610Z,1120
2018-02-21T15:48:01.381Z,1092
2018-02-21T15:49:15.619Z,1072
2018-02-21T15:50:29.641Z,1036
2018-02-21T15:51:43.950Z,1004
2018-02-21T15:52:58.459Z,984
2018-02-21T15:54:12.961Z,956
2018-02-21T15:55:27.085Z,932
2018-02-21T15:56:40.362Z,916
2018-02-21T15:57:55.106Z,904
2018-02-21T15:59:08.908Z,912
2018-02-21T16:00:23.289Z,896
2018-02-21T16:01:37.442Z,892
2018-02-21T16:02:51.950Z,888
2018-02-21T16:04:05.479Z,868
2018-02-21T16:05:19.732Z,856
2018-02-21T16:06:34.010Z,840
2018-02-21T16:07:48.136Z,808
2018-02-21T16:09:01.937Z,780
2018-02-21T16:10:16.249Z,760
2018-02-21T16:11:30.505Z,736
2018-02-21T16:12:44.513Z,708
2018-02-21T16:13:59.023Z,664
2018-02-21T16:15:13.778Z,612
2018-02-21T16:16:28.306Z,564
2018-02-21T16:17:42.587Z,532
2018-02-21T16:18:56.620Z,504
2018-02-21T16:20:10.651Z,480
2018-02-21T16:21:24.925Z,460
2018-02-21T16:22:39.258Z,440
2018-02-21T16:23:53.273Z,420
2018-02-21T16:25:07.346Z,404
2018-02-21T16:26:21.400Z,388
2018-02-21T16:27:35.776Z,372
2018-02-21T16:28:49.811Z,352
2018-02-21T16:30:03.379Z,340
2018-02-21T16:31:17.170Z,320
2018-02-21T16:32:31.496Z,304
2018-02-21T16:33:45.032Z,292
2018-02-21T16:34:59.498Z,276
2018-02-21T16:36:13.581Z,264
2018-02-21T16:37:27.859Z,252
2018-02-21T16:38:42.208Z,240
2018-02-21T16:39:56.018Z,228
2018-02-21T16:41:10.569Z,216
2018-02-21T16:42:25.108Z,200
2018-02-21T16:43:39.411Z,188
2018-02-21T16:44:53.681Z,172
2018-02-21T16:46:07.975Z,160
2018-02-21T16:47:22.497Z,144
2018-02-21T16:48:37.048Z,128
2018-02-21T16:49:51.331Z,116
2018-02-21T16:51:05.864Z,104
2018-02-21T16:52:20.269Z,96
2018-02-21T16:53:34.945Z,84
2018-02-21T16:54:48.485Z,72
2018-02-21T16:56:02.519Z,64
2018-02-21T16:57:16.125Z,60
2018-02-21T16:58:30.147Z,52
2018-02-21T16:59:44.702Z,44
2018-02-21T17:00:59.013Z,36
2018-02-21T17:02:12.805Z,28
2018-02-21T17:03:26.619Z,28
2018-02-21T17:04:40.630Z,20
2018-02-21T17:05:54.902Z,16
2018-02-21T17:07:08.959Z,12
2018-02-21T17:08:23.086Z,12
2018-02-21T17:09:37.152Z,12
2018-02-21T17:10:51.198Z,8
2018-02-21T17:12:05.570Z,8
2018-02-21T17:13:20.134Z,4
2018-02-21T17:14:33.967Z,4
2018-02-21T17:15:48.260Z,0